Terminal Aerodrome Forecast
Issued by NWS Cleveland, OH

Home | Current Version | Previous Version | Graphics & Text | Print | Product List | Glossary On
Versions: 1 2 3 4 5 6 7 8 9 10 11 12 13 14 15
854
FTUS41 KCLE 251720
TAFTOL
TAF
KTOL 251720Z 2518/2618 22006KT P6SM SKC
     FM260800 20005KT P6SM BKN100
     FM261400 20006KT P6SM BKN060
      TEMPO 2614/2618 5SM -SHRA BKN035=

USA.gov is the U.S. government's official web portal to all federal, state and local government web resources and services.